Goodyears Bar, California
Current Conditions -  °F | °C
As of 1:52 AM on Sunday 23 Nov 2014 (Local Time) from KBLU Reporting Station
Clear Clear  
Wind Chill: 28°   Ceiling: Unl
Heat Index: 34°   Visibility: 10mi
Dew Point: 26°   Wind: 7mph
Humidity: 73%   Direction: 40°NE
Pressure: 30.24"   Gusts: NA
Location:  39.54°N, 120.88°W
Report Text: KBLU 230952Z AUTO 04006KT 10SM CLR 01/M03 A3024 RMK AO2 SLP231 T00111033
Loading
Personal Weather Stations






























Interactive Weather Map New forecast layout! Learn more

10-Day Weather Forecast

Advertisements
Track Severe Weather on mobile